TimeEDT,TemperatureF,Dew PointF,Humidity,Sea Level PressureIn,VisibilityMPH,Wind Direction,Wind SpeedMPH,Gust SpeedMPH,PrecipitationIn,Events,Conditions,WindDirDegrees,DateUTC
12:54 AM,62.1,50.0,65,30.10,10.0,North,4.6,-,N/A,,Clear,10,2014-05-30 04:54:00
1:54 AM,60.1,50.0,69,30.10,10.0,NNE,4.6,-,N/A,,Clear,20,2014-05-30 05:54:00
2:54 AM,59.0,50.0,72,30.10,10.0,NNE,4.6,-,N/A,,Overcast,30,2014-05-30 06:54:00
3:54 AM,57.0,48.9,74,30.10,10.0,NNE,3.5,-,N/A,,Partly Cloudy,30,2014-05-30 07:54:00
5:54 AM,55.0,48.9,80,30.10,10.0,NE,3.5,-,N/A,,Clear,40,2014-05-30 09:54:00
6:54 AM,55.0,50.0,83,30.12,8.0,NE,3.5,-,N/A,,Clear,40,2014-05-30 10:54:00
7:54 AM,57.0,51.1,81,30.14,9.0,Variable,4.6,-,N/A,,Clear,0,2014-05-30 11:54:00
8:54 AM,61.0,53.1,75,30.15,10.0,NE,6.9,-,N/A,,Clear,50,2014-05-30 12:54:00
9:54 AM,61.0,54.0,78,30.17,10.0,ENE,11.5,-,N/A,,Scattered Clouds,70,2014-05-30 13:54:00
10:01 AM,60.1,53.1,78,30.19,10.0,ENE,10.4,-,N/A,,Mostly Cloudy,60,2014-05-30 14:01:00
10:54 AM,61.0,55.0,81,30.17,10.0,ENE,5.8,-,N/A,,Overcast,60,2014-05-30 14:54:00
11:47 AM,64.0,55.0,73,30.19,10.0,Variable,3.5,-,N/A,,Partly Cloudy,0,2014-05-30 15:47:00
11:54 AM,66.0,55.9,70,30.18,10.0,ENE,6.9,-,N/A,,Partly Cloudy,70,2014-05-30 15:54:00
12:54 PM,70.0,57.0,63,30.16,10.0,ESE,6.9,-,N/A,,Clear,120,2014-05-30 16:54:00
2:54 PM,77.0,55.0,47,30.14,10.0,ESE,10.4,-,N/A,,Clear,110,2014-05-30 18:54:00
3:54 PM,79.0,53.1,40,30.12,10.0,ENE,8.1,-,N/A,,Clear,60,2014-05-30 19:54:00
6:54 PM,78.1,48.0,35,30.10,10.0,NE,8.1,-,N/A,,Clear,50,2014-05-30 22:54:00
7:54 PM,77.0,50.0,39,30.11,10.0,ENE,5.8,-,N/A,,Clear,60,2014-05-30 23:54:00
8:54 PM,71.1,52.0,51,30.12,10.0,Calm,Calm,-,N/A,,Clear,0,2014-05-31 00:54:00
9:54 PM,64.9,55.9,73,30.14,10.0,Calm,Calm,-,N/A,,Clear,0,2014-05-31 01:54:00
10:54 PM,62.1,55.0,78,30.16,10.0,Calm,Calm,-,N/A,,Clear,0,2014-05-31 02:54:00
11:54 PM,62.1,55.0,78,30.17,10.0,NE,3.5,-,N/A,,Clear,40,2014-05-31 03:54:00